Terminal Aerodrome Forecast
Issued by NWS Pueblo, CO

Home | Current Version | Previous Version | Text Only | Print | Product List | Glossary On
Versions: 1 2 3 4 5 6 7 8 9 10 11 12 13 14 15 16 17 18 19
000
FTUS45 KPUB 292328
TAFCOS
TAF
KCOS 292328Z 3000/3024 32012KT P6SM VCTS SCT050CB BKN080
      TEMPO 3000/3002 5SM -TSRA BR BKN040CB
     FM300600 02006KT P6SM VCSH BKN070
     FM300900 35007KT P6SM SCT080 BKN140
     FM301800 11007KT P6SM SCT060 BKN120
     FM302000 10009KT P6SM VCTS SCT050CB BKN120=

USA.gov is the U.S. government's official web portal to all federal, state and local government web resources and services.